Time;durP1;ratioP1;P1;durP2;ratioP2;P2;SDS_P1;SDS_P2;PMS_P1;PMS_P2;Temp;Humidity;BMP_temperature;BMP_pressure;BME280_temperature;BME280_humidity;BME280_pressure;Samples;Min_cycle;Max_cycle;Signal;HPM_P1;HPM_P2
2024/05/04 00:04:17;;;;;;;3.30;1.83;;;;;;;7.44;100.00;101265.84;10973244;26;20016;-19
2024/05/04 00:09:21;;;;;;;3.05;1.77;;;;;;;7.47;100.00;101274.09;10923777;26;20674;-20
2024/05/04 00:14:24;;;;;;;3.58;2.13;;;;;;;7.57;100.00;101267.03;10961355;26;20011;-20
2024/05/04 00:19:31;;;;;;;4.67;2.50;;;;;;;7.62;100.00;101273.13;10962039;26;23852;-19
2024/05/04 00:24:35;;;;;;;4.55;2.30;;;;;;;7.71;100.00;101273.28;10948045;26;20122;-19
2024/05/04 00:29:38;;;;;;;4.22;2.17;;;;;;;7.64;100.00;101275.50;10943690;26;20019;-19
2024/05/04 00:34:45;;;;;;;7.72;2.63;;;;;;;7.71;100.00;101270.59;10966599;26;20011;-19
2024/05/04 00:39:49;;;;;;;4.80;2.60;;;;;;;7.70;100.00;101279.69;10946054;26;20415;-21
2024/05/04 00:44:52;;;;;;;4.40;2.58;;;;;;;7.66;100.00;101268.00;10944196;26;20862;-19
2024/05/04 00:50:03;;;;;;;3.87;2.40;;;;;;;7.63;100.00;101266.69;10955122;26;20597;-19
2024/05/04 00:55:09;;;;;;;5.30;2.40;;;;;;;7.62;100.00;101267.75;10952940;26;20084;-22
2024/05/04 01:00:14;;;;;;;4.65;2.38;;;;;;;7.70;100.00;101264.47;10937248;26;21785;-19
2024/05/04 01:05:20;;;;;;;;;;;;;;;7.66;100.00;101270.66;10955153;26;20617;-19
2024/05/04 01:10:24;;;;;;;6.25;2.42;;;;;;;7.58;100.00;101265.94;10946158;26;19945;-20
2024/05/04 01:15:28;;;;;;;4.85;2.50;;;;;;;7.52;100.00;101279.38;10968138;26;20639;-19
2024/05/04 01:20:34;;;;;;;5.03;2.65;;;;;;;7.49;100.00;101274.59;10958608;26;20015;-19
2024/05/04 01:25:41;;;;;;;5.15;2.70;;;;;;;7.48;100.00;101275.66;10946663;26;22133;-20
2024/05/04 01:30:45;;;;;;;4.05;2.40;;;;;;;7.44;100.00;101271.19;10954064;26;20117;-20
2024/05/04 01:35:48;;;;;;;4.43;2.35;;;;;;;7.43;100.00;101281.03;10933620;26;20059;-20
2024/05/04 01:40:56;;;;;;;4.10;2.27;;;;;;;7.39;100.00;101277.34;10987935;26;20012;-20
2024/05/04 01:45:59;;;;;;;4.10;2.40;;;;;;;7.38;100.00;101277.63;10969556;26;24427;-20
2024/05/04 01:51:07;;;;;;;4.53;2.95;;;;;;;7.36;100.00;101277.91;10970767;26;20051;-20
2024/05/04 01:56:14;;;;;;;3.20;2.33;;;;;;;7.36;100.00;101279.78;10963215;26;20015;-20
2024/05/04 02:01:18;;;;;;;4.38;2.35;;;;;;;7.32;100.00;101278.75;10966949;26;20010;-19
2024/05/04 02:06:22;;;;;;;5.10;2.53;;;;;;;7.30;100.00;101279.03;10972584;26;20007;-20
2024/05/04 02:11:29;;;;;;;3.90;2.00;;;;;;;7.31;100.00;101282.50;10962843;26;20890;-20
2024/05/04 02:16:32;;;;;;;3.70;2.15;;;;;;;7.25;100.00;101275.63;10976249;26;22504;-19
2024/05/04 02:21:36;;;;;;;3.05;1.90;;;;;;;7.21;100.00;101275.41;10972949;26;20229;-19
2024/05/04 02:26:43;;;;;;;4.53;2.30;;;;;;;7.24;100.00;101272.16;10915029;26;20117;-19
2024/05/04 02:31:47;;;;;;;4.80;2.17;;;;;;;7.15;100.00;101263.16;10983114;26;20130;-19
2024/05/04 02:36:50;;;;;;;4.22;2.22;;;;;;;7.07;100.00;101255.78;10980385;26;20488;-19
2024/05/04 02:41:57;;;;;;;2.85;1.70;;;;;;;7.00;100.00;101249.97;10982226;26;20059;-19
2024/05/04 02:47:04;;;;;;;5.30;2.15;;;;;;;7.01;100.00;101249.69;10943469;26;20682;-19
2024/05/04 02:52:09;;;;;;;3.70;2.10;;;;;;;6.98;100.00;101260.94;10976815;26;20011;-20
2024/05/04 02:57:15;;;;;;;2.92;2.10;;;;;;;6.91;100.00;101257.78;10960702;26;20197;-19
2024/05/04 03:02:19;;;;;;;4.25;2.10;;;;;;;6.89;100.00;101249.25;10950702;26;22353;-21
2024/05/04 03:07:23;;;;;;;2.88;1.80;;;;;;;6.67;100.00;101252.38;10953090;26;20026;-19
2024/05/04 03:12:29;;;;;;;2.40;1.60;;;;;;;6.56;100.00;101262.31;10977660;26;20074;-19
2024/05/04 03:17:33;;;;;;;2.58;1.48;;;;;;;6.66;100.00;101260.69;10954619;26;20012;-20
2024/05/04 03:22:37;;;;;;;2.40;1.58;;;;;;;6.58;100.00;101251.41;10951446;26;20716;-20
2024/05/04 03:27:44;;;;;;;4.05;1.85;;;;;;;6.69;100.00;101258.25;10982859;26;21456;-19
2024/05/04 03:32:48;;;;;;;4.65;1.80;;;;;;;6.68;100.00;101243.31;10949014;26;20016;-19
2024/05/04 03:37:52;;;;;;;3.10;1.83;;;;;;;6.55;100.00;101249.25;10976557;26;20043;-19
2024/05/04 03:42:58;;;;;;;3.03;1.93;;;;;;;6.49;100.00;101247.69;10974923;26;20065;-19
2024/05/04 03:48:02;;;;;;;2.65;1.70;;;;;;;6.57;100.00;101241.78;10967145;26;22143;-19
2024/05/04 03:53:06;;;;;;;3.75;1.90;;;;;;;6.50;100.00;101258.09;10964739;26;20112;-19
2024/05/04 03:58:13;;;;;;;3.60;1.85;;;;;;;6.44;100.00;101253.06;10969096;26;20799;-19
2024/05/04 04:03:17;;;;;;;3.72;1.73;;;;;;;6.44;100.00;101251.19;10977227;26;20011;-19
2024/05/04 04:08:21;;;;;;;5.53;1.83;;;;;;;6.31;100.00;101261.66;10977202;26;20066;-20
2024/05/04 04:13:27;;;;;;;2.30;1.60;;;;;;;6.37;100.00;101265.91;10974892;26;21351;-19
2024/05/04 04:18:31;;;;;;;3.03;1.70;;;;;;;6.34;100.00;101272.59;10944106;26;20363;-20
2024/05/04 04:23:35;;;;;;;2.08;1.55;;;;;;;6.38;100.00;101270.16;10955027;26;20019;-19
2024/05/04 04:28:41;;;;;;;2.88;1.52;;;;;;;6.37;100.00;101279.25;10965507;26;22965;-19
2024/05/04 04:33:45;;;;;;;2.03;1.50;;;;;;;6.36;100.00;101286.44;10960492;26;20740;-19
2024/05/04 04:38:49;;;;;;;2.15;1.40;;;;;;;6.48;100.00;101278.91;10968029;26;20121;-21
2024/05/04 04:43:55;;;;;;;1.83;1.40;;;;;;;6.51;100.00;101281.03;10968199;26;20101;-20
2024/05/04 04:48:59;;;;;;;2.95;1.30;;;;;;;6.43;100.00;101289.63;10970481;26;20474;-20
2024/05/04 04:54:03;;;;;;;3.13;1.55;;;;;;;6.36;100.00;101286.44;10957294;26;20579;-19
2024/05/04 04:59:10;;;;;;;3.80;1.88;;;;;;;6.57;100.00;101292.50;10943759;26;20015;-20
2024/05/04 05:04:14;;;;;;;3.22;1.75;;;;;;;6.92;100.00;101293.31;10953224;26;20034;-19
2024/05/04 05:09:18;;;;;;;4.70;2.15;;;;;;;7.20;100.00;101290.63;10961579;26;20115;-19
2024/05/04 05:14:24;;;;;;;4.45;2.30;;;;;;;7.68;100.00;101293.34;10959828;26;20015;-20
2024/05/04 05:19:28;;;;;;;6.32;2.50;;;;;;;8.19;100.00;101295.38;10962939;26;20573;-19
2024/05/04 05:24:32;;;;;;;4.45;2.55;;;;;;;8.86;100.00;101284.53;10944148;26;20022;-20
2024/05/04 05:29:39;;;;;;;6.30;3.38;;;;;;;9.96;97.19;101288.91;10959700;26;20336;-20
2024/05/04 05:34:42;;;;;;;7.80;3.33;;;;;;;10.71;93.56;101293.72;10961717;26;20011;-16
2024/05/04 05:39:46;;;;;;;5.07;2.95;;;;;;;11.02;88.50;101296.47;10913258;26;20051;-17
2024/05/04 05:44:52;;;;;;;5.97;2.90;;;;;;;11.71;87.48;101295.19;10948208;26;21693;-15
2024/05/04 05:49:56;;;;;;;6.80;2.88;;;;;;;11.83;86.67;101300.81;10943823;26;21828;-17
2024/05/04 05:55:00;;;;;;;7.68;2.80;;;;;;;11.87;87.61;101296.38;10962240;26;20012;-16
2024/05/04 06:00:07;;;;;;;3.78;2.33;;;;;;;12.28;86.14;101306.78;10960053;26;22071;-16
2024/05/04 06:05:20;;;;;;;4.45;2.08;;;;;;;12.13;85.38;101307.19;10947072;26;20075;-16
2024/05/04 06:10:24;;;;;;;8.20;2.10;;;;;;;12.62;85.69;101303.28;10974262;26;20007;-16
2024/05/04 06:15:30;;;;;;;5.05;2.03;;;;;;;12.35;84.50;101312.47;10973048;26;20015;-16
2024/05/04 06:20:34;;;;;;;5.43;2.20;;;;;;;12.40;86.12;101320.41;10960796;26;20050;-15
2024/05/04 06:25:38;;;;;;;4.85;2.28;;;;;;;12.48;86.81;101321.50;10971669;26;20636;-17
2024/05/04 06:30:44;;;;;;;3.83;1.90;;;;;;;12.48;86.12;101330.38;10979292;26;20011;-17
2024/05/04 06:35:48;;;;;;;6.13;1.98;;;;;;;12.22;86.27;101334.94;10977855;26;20026;-17
2024/05/04 06:40:52;;;;;;;4.82;1.75;;;;;;;12.21;86.78;101339.53;10948657;26;20016;-17
2024/05/04 06:45:59;;;;;;;4.45;1.83;;;;;;;12.23;85.86;101341.91;10966304;26;20015;-17
2024/05/04 06:51:02;;;;;;;3.13;1.70;;;;;;;12.26;85.78;101339.38;10964913;26;20115;-17
2024/05/04 06:56:07;;;;;;;5.53;1.90;;;;;;;12.47;86.42;101341.47;10959009;26;20019;-17
2024/05/04 07:01:13;;;;;;;;;;;;;;;12.47;85.22;101341.47;10967482;26;20014;-17
2024/05/04 07:06:17;;;;;;;5.18;1.80;;;;;;;12.78;84.87;101339.44;10965517;26;20710;-16
2024/05/04 07:11:21;;;;;;;2.40;1.55;;;;;;;12.92;82.46;101344.66;10967435;26;20038;-17
2024/05/04 07:16:27;;;;;;;4.32;1.75;;;;;;;13.24;82.62;101344.13;10959595;26;20014;-17
2024/05/04 07:21:31;;;;;;;2.25;1.70;;;;;;;13.41;80.57;101346.00;10966204;26;20011;-17
2024/05/04 07:26:35;;;;;;;3.65;1.63;;;;;;;13.98;81.62;101352.94;10938247;26;21319;-16
2024/05/04 07:31:41;;;;;;;2.78;1.70;;;;;;;14.59;76.91;101356.06;10975162;26;20113;-16
2024/05/04 07:36:45;;;;;;;4.97;1.67;;;;;;;14.75;74.33;101357.84;10974015;26;20021;-17
2024/05/04 07:41:49;;;;;;;3.38;1.40;;;;;;;15.25;75.55;101354.25;10992740;26;20506;-20
2024/05/04 07:46:58;;;;;;;3.95;1.30;;;;;;;14.98;75.79;101362.91;10969420;26;20007;-20
2024/05/04 07:52:02;;;;;;;3.20;1.15;;;;;;;14.80;75.47;101351.44;10958220;26;20117;-20
2024/05/04 07:57:06;;;;;;;1.92;1.30;;;;;;;14.95;74.64;101356.25;10969901;26;20255;-20
2024/05/04 08:02:13;;;;;;;5.35;1.38;;;;;;;15.42;75.24;101347.84;10946149;26;20045;-19
2024/05/04 08:07:17;;;;;;;1.60;1.10;;;;;;;15.29;74.30;101344.31;10979340;26;20015;-20
2024/05/04 08:12:20;;;;;;;1.70;1.10;;;;;;;15.57;71.46;101344.47;10960492;26;20008;-20
2024/05/04 08:17:27;;;;;;;2.13;1.13;;;;;;;15.61;72.15;101339.19;10957161;26;20022;-21
2024/05/04 08:22:30;;;;;;;2.03;1.10;;;;;;;15.87;69.95;101338.84;10982854;26;20111;-17
2024/05/04 08:27:34;;;;;;;2.75;1.42;;;;;;;15.93;70.81;101340.97;10982015;26;20041;-16
2024/05/04 08:32:41;;;;;;;3.33;1.00;;;;;;;16.26;72.19;101337.38;10964528;26;20022;-17
2024/05/04 08:37:44;;;;;;;1.92;1.00;;;;;;;15.74;70.35;101341.56;10939676;26;20055;-18
2024/05/04 08:42:48;;;;;;;1.77;1.15;;;;;;;15.98;68.99;101338.03;10979662;26;20145;-17
2024/05/04 08:47:55;;;;;;;2.10;1.02;;;;;;;15.73;67.67;101342.69;10944694;26;20105;-17
2024/05/04 08:52:59;;;;;;;3.88;1.20;;;;;;;15.98;70.09;101340.75;10957704;26;20811;-16
2024/05/04 08:58:03;;;;;;;;;;;;;;;16.16;69.20;101348.69;10982257;26;20043;-17
2024/05/04 09:03:09;;;;;;;3.42;1.08;;;;;;;15.92;71.28;101335.91;10959225;26;25849;-17
2024/05/04 09:08:13;;;;;;;3.05;1.02;;;;;;;15.82;68.10;101326.31;10976445;26;20026;-17
2024/05/04 09:13:17;;;;;;;2.95;0.80;;;;;;;15.80;67.87;101331.28;10912867;26;21232;-16
2024/05/04 09:18:23;;;;;;;2.15;0.90;;;;;;;15.93;66.00;101335.56;10944404;26;20090;-17
2024/05/04 09:23:27;;;;;;;2.90;1.30;;;;;;;16.46;66.57;101324.78;10959906;26;20015;-17
2024/05/04 09:28:31;;;;;;;3.40;0.90;;;;;;;16.62;64.43;101314.81;10960504;26;20020;-16
2024/05/04 09:33:38;;;;;;;;;;;;;;;16.78;67.39;101302.06;10953997;26;20392;-17
2024/05/04 09:38:48;;;;;;;3.83;0.90;;;;;;;16.73;62.68;101305.03;10956292;26;20014;-16
2024/05/04 09:43:52;;;;;;;1.17;0.60;;;;;;;16.99;60.59;101293.75;10954738;26;22179;-17
2024/05/04 09:48:59;;;;;;;;;;;;;;;17.99;61.54;101294.25;10962630;26;22464;-18
2024/05/04 09:54:03;;;;;;;1.65;0.63;;;;;;;18.15;59.73;101286.84;10941088;26;19933;-17
2024/05/04 09:59:09;;;;;;;2.80;0.70;;;;;;;17.47;59.92;101289.94;10940535;26;20075;-18
2024/05/04 10:04:20;;;;;;;1.83;0.65;;;;;;;18.32;60.21;101300.03;10971746;26;20019;-18
2024/05/04 10:09:24;;;;;;;1.52;0.65;;;;;;;18.40;61.72;101300.97;10960162;26;20011;-16
2024/05/04 10:14:29;;;;;;;1.45;0.68;;;;;;;17.75;58.37;101280.88;10951568;26;20014;-17
2024/05/04 10:19:35;;;;;;;3.95;0.60;;;;;;;17.64;58.33;101273.25;10967097;26;21374;-19
2024/05/04 10:24:40;;;;;;;2.08;0.70;;;;;;;17.25;57.23;101275.03;10976309;26;21388;-20
2024/05/04 10:29:43;;;;;;;2.00;0.52;;;;;;;17.64;57.85;101269.75;10973733;26;21915;-20
2024/05/04 10:34:50;;;;;;;1.20;0.50;;;;;;;17.34;59.44;101266.72;10951686;26;20066;-21
2024/05/04 10:39:55;;;;;;;1.40;0.50;;;;;;;17.54;59.84;101262.16;10954583;26;20029;-20
2024/05/04 10:45:00;;;;;;;3.45;0.57;;;;;;;17.02;59.13;101255.84;10960559;26;20028;-20
2024/05/04 10:50:08;;;;;;;1.27;0.57;;;;;;;17.00;60.26;101257.31;10945527;26;20022;-20
2024/05/04 10:55:16;;;;;;;2.30;0.82;;;;;;;17.17;59.24;101245.34;10972927;26;20097;-20
2024/05/04 11:00:22;;;;;;;2.90;0.70;;;;;;;17.50;59.16;101245.78;10972345;26;20578;-21
2024/05/04 11:05:28;;;;;;;3.13;0.80;;;;;;;17.31;57.54;101232.13;10979203;26;20129;-20
2024/05/04 11:10:32;;;;;;;2.45;0.88;;;;;;;18.17;57.34;101229.41;10972046;26;25125;-20
2024/05/04 11:15:37;;;;;;;1.67;0.93;;;;;;;18.45;56.44;101218.31;10967359;26;20011;-19
2024/05/04 11:20:54;;;;;;;2.03;0.60;;;;;;;18.45;54.70;101213.66;10907425;26;20811;-20
2024/05/04 11:25:58;;;;;;;1.40;0.52;;;;;;;18.07;53.15;101203.56;10962929;26;20010;-20
2024/05/04 11:31:02;;;;;;;1.85;0.80;;;;;;;18.57;53.86;101191.72;10977104;26;20019;-20
2024/05/04 11:36:09;;;;;;;2.60;0.70;;;;;;;18.43;51.92;101193.41;10947470;26;20034;-20
2024/05/04 11:41:13;;;;;;;1.02;0.60;;;;;;;19.12;51.08;101186.09;10951307;26;20019;-20
2024/05/04 11:46:17;;;;;;;1.73;0.65;;;;;;;18.70;51.26;101180.66;10935031;26;20011;-21
2024/05/04 11:51:24;;;;;;;2.85;0.68;;;;;;;19.23;49.59;101165.25;10947872;26;20212;-20
2024/05/04 11:56:28;;;;;;;4.07;0.65;;;;;;;19.32;49.22;101154.88;10961854;26;20014;-20
2024/05/04 12:01:31;;;;;;;2.00;0.60;;;;;;;18.86;48.99;101144.03;10931683;26;20014;-21
2024/05/04 12:06:38;;;;;;;3.40;0.50;;;;;;;18.56;47.32;101135.75;10959709;26;25379;-20
2024/05/04 12:11:43;;;;;;;1.13;0.50;;;;;;;18.26;47.37;101123.94;10957801;26;20322;-20
2024/05/04 12:16:47;;;;;;;1.27;0.60;;;;;;;19.10;46.33;101117.56;10957881;26;20008;-21
2024/05/04 12:21:54;;;;;;;1.90;0.50;;;;;;;19.01;46.92;101115.09;10949644;26;20047;-20
2024/05/04 12:26:57;;;;;;;2.08;0.50;;;;;;;19.10;45.62;101103.94;10963439;26;20022;-21
2024/05/04 12:32:01;;;;;;;4.03;0.63;;;;;;;18.92;46.91;101104.47;10965847;26;20051;-20
2024/05/04 12:37:08;;;;;;;1.35;0.50;;;;;;;18.72;47.96;101089.38;10967838;26;20023;-21
2024/05/04 12:42:11;;;;;;;3.38;0.60;;;;;;;18.54;48.66;101075.47;10964732;26;20055;-20
2024/05/04 12:47:15;;;;;;;5.07;0.52;;;;;;;19.22;48.75;101073.81;10974481;26;21346;-21
2024/05/04 12:52:22;;;;;;;1.50;0.50;;;;;;;19.06;47.73;101070.44;10967309;26;20115;-21
2024/05/04 12:57:26;;;;;;;1.00;0.43;;;;;;;19.41;49.21;101062.00;10964058;26;21236;-22
2024/05/04 13:02:29;;;;;;;2.88;0.50;;;;;;;19.32;47.35;101053.31;10965760;26;20791;-16
2024/05/04 13:07:36;;;;;;;1.42;0.40;;;;;;;19.94;46.90;101057.16;10959378;26;20033;-18
2024/05/04 13:12:40;;;;;;;1.77;0.50;;;;;;;19.70;44.95;101046.78;10956101;26;21373;-17
2024/05/04 13:17:43;;;;;;;1.92;0.45;;;;;;;19.94;45.10;101027.19;10953108;26;20103;-17
2024/05/04 13:22:50;;;;;;;1.90;0.43;;;;;;;19.39;46.64;101010.59;10966574;26;20066;-17
2024/05/04 13:27:54;;;;;;;1.67;0.50;;;;;;;19.26;47.79;101004.63;10951939;26;20033;-18
2024/05/04 13:32:58;;;;;;;2.33;0.60;;;;;;;19.04;46.69;100982.91;10963328;26;20125;-17
2024/05/04 13:38:04;;;;;;;3.25;0.68;;;;;;;19.19;46.76;100973.78;10976782;26;20015;-17
2024/05/04 13:43:08;;;;;;;3.00;0.60;;;;;;;19.06;46.22;100961.53;10971134;26;20021;-20
2024/05/04 13:48:12;;;;;;;2.45;0.57;;;;;;;19.24;46.77;100966.06;10943941;26;20016;-20
2024/05/04 13:53:18;;;;;;;0.90;0.50;;;;;;;18.57;48.04;100978.75;10963158;26;20020;-21
2024/05/04 13:58:23;;;;;;;1.83;0.50;;;;;;;18.47;49.51;100971.22;10966566;26;20018;-20
2024/05/04 14:03:26;;;;;;;1.50;0.60;;;;;;;18.39;49.89;100978.47;10963865;26;20023;-20
2024/05/04 14:08:33;;;;;;;2.58;0.80;;;;;;;18.21;48.42;100988.28;10968839;26;22377;-21
2024/05/04 14:13:37;;;;;;;2.28;0.50;;;;;;;17.31;53.73;101061.09;10956739;26;20081;-21
2024/05/04 14:18:41;;;;;;;1.02;0.40;;;;;;;15.40;67.64;101068.59;10955785;26;20673;-21
2024/05/04 14:23:47;;;;;;;1.27;0.40;;;;;;;13.88;76.11;101108.38;10977052;26;21235;-20
2024/05/04 14:28:51;;;;;;;1.20;0.40;;;;;;;13.31;82.27;101103.53;10945924;26;20030;-22
2024/05/04 14:33:55;;;;;;;1.73;0.50;;;;;;;12.82;85.50;101088.91;10937423;26;20689;-20
2024/05/04 14:39:01;;;;;;;1.80;0.43;;;;;;;12.94;87.80;101078.22;10962361;26;20029;-21
2024/05/04 14:44:05;;;;;;;3.05;0.50;;;;;;;13.03;86.79;101070.88;10956056;26;20026;-20
2024/05/04 14:49:09;;;;;;;1.33;0.52;;;;;;;13.12;88.33;101050.03;10961884;26;22834;-20
2024/05/04 14:54:15;;;;;;;;;;;;;;;12.68;89.87;101061.38;10963570;26;20084;-20
2024/05/04 14:59:19;;;;;;;1.13;0.50;;;;;;;13.05;90.88;101048.97;10953405;26;20017;-20
2024/05/04 15:04:23;;;;;;;;;;;;;;;12.69;89.85;101050.28;10960222;26;20034;-20
2024/05/04 15:09:30;;;;;;;1.48;0.50;;;;;;;13.52;91.66;101057.69;10966336;26;20628;-22
2024/05/04 15:14:33;;;;;;;1.83;0.68;;;;;;;13.35;90.84;101041.63;10971693;26;20029;-20
2024/05/04 15:19:37;;;;;;;1.92;0.95;;;;;;;13.68;89.39;101039.00;10961310;26;20058;-20
2024/05/04 15:24:44;;;;;;;3.72;1.25;;;;;;;13.94;91.63;101023.34;10959442;26;20070;-20
2024/05/04 15:29:48;;;;;;;2.40;0.80;;;;;;;13.85;89.83;101019.94;10961214;26;20010;-20
2024/05/04 15:34:52;;;;;;;1.50;0.73;;;;;;;14.28;91.28;101021.38;10971740;26;21279;-20
2024/05/04 15:39:58;;;;;;;1.50;0.60;;;;;;;14.01;87.77;101003.88;10971973;26;20084;-20
2024/05/04 15:45:02;;;;;;;4.43;0.80;;;;;;;13.79;87.71;100991.59;10964151;26;20019;-20
2024/05/04 15:50:06;;;;;;;3.35;1.15;;;;;;;14.12;87.51;100994.22;10974859;26;20126;-21
2024/05/04 15:55:13;;;;;;;3.15;1.00;;;;;;;14.05;90.25;100986.69;10979517;26;25126;-21
2024/05/04 16:00:17;;;;;;;1.98;0.90;;;;;;;14.03;88.92;100975.44;10958598;26;20439;-20
2024/05/04 16:05:21;;;;;;;1.45;0.80;;;;;;;13.98;91.79;100975.66;10965866;26;20479;-20
2024/05/04 16:10:27;;;;;;;1.13;0.50;;;;;;;13.94;87.23;100955.03;10964397;26;24486;-20
2024/05/04 16:15:31;;;;;;;1.40;0.70;;;;;;;14.06;92.09;100952.34;10943497;26;20031;-21
2024/05/04 16:20:39;;;;;;;1.70;0.80;;;;;;;13.99;88.46;100958.31;10959167;26;20027;-19
2024/05/04 16:25:46;;;;;;;1.65;0.80;;;;;;;13.76;88.04;100955.25;10964061;26;20011;-20
2024/05/04 16:30:50;;;;;;;2.75;0.80;;;;;;;13.49;89.16;100961.97;10962088;26;20112;-16
2024/05/04 16:35:53;;;;;;;1.40;0.60;;;;;;;13.33;89.60;100955.63;10961226;26;20026;-17
2024/05/04 16:41:01;;;;;;;1.30;0.70;;;;;;;13.43;89.91;100954.41;10964614;26;20022;-17
2024/05/04 16:46:05;;;;;;;2.40;0.80;;;;;;;13.49;90.98;100956.56;10952684;26;20481;-17
2024/05/04 16:51:08;;;;;;;;;;;;;;;13.34;93.19;100953.69;10944472;26;20087;-17
2024/05/04 16:56:15;;;;;;;2.55;1.08;;;;;;;13.32;95.24;100950.53;10952393;26;19951;-16
2024/05/04 17:01:19;;;;;;;3.38;0.90;;;;;;;13.13;93.28;100956.44;10926767;26;20021;-17
2024/05/04 17:06:22;;;;;;;1.90;0.90;;;;;;;13.15;94.06;100944.19;10940065;26;20018;-16
2024/05/04 17:11:29;;;;;;;1.80;0.95;;;;;;;12.90;94.14;100929.00;10923780;26;20016;-16
2024/05/04 17:16:33;;;;;;;1.88;0.80;;;;;;;12.78;98.36;100927.03;10904667;26;20592;-17
2024/05/04 17:21:36;;;;;;;2.85;0.80;;;;;;;12.78;99.79;100910.88;10944771;26;20029;-17
2024/05/04 17:26:43;;;;;;;1.48;0.70;;;;;;;12.92;98.11;100903.28;10935560;26;20411;-18
2024/05/04 17:31:47;;;;;;;1.67;0.80;;;;;;;12.82;98.93;100908.31;10951645;26;20007;-17
2024/05/04 17:36:51;;;;;;;1.50;0.80;;;;;;;12.67;99.89;100895.41;10952071;26;20472;-18
2024/05/04 17:41:57;;;;;;;2.45;0.90;;;;;;;12.64;100.00;100894.16;10942316;26;20008;-15
2024/05/04 17:47:01;;;;;;;2.35;0.95;;;;;;;12.69;100.00;100882.41;10940037;26;20426;-16
2024/05/04 17:52:05;;;;;;;2.38;1.00;;;;;;;12.54;100.00;100891.81;10899109;26;22039;-16
2024/05/04 17:57:11;;;;;;;2.17;1.00;;;;;;;12.63;100.00;100871.78;10935883;26;20027;-15
2024/05/04 18:02:15;;;;;;;4.13;0.93;;;;;;;12.46;99.90;100881.91;10915031;26;20276;-15
2024/05/04 18:07:19;;;;;;;2.13;0.90;;;;;;;12.44;100.00;100871.44;10929881;26;20021;-17
2024/05/04 18:12:25;;;;;;;2.63;0.85;;;;;;;12.39;100.00;100871.66;10930525;26;20007;-15
2024/05/04 18:17:29;;;;;;;3.97;1.08;;;;;;;12.25;100.00;100871.06;10928593;26;20026;-15
2024/05/04 18:22:33;;;;;;;2.90;1.00;;;;;;;12.33;100.00;100872.16;10935739;26;20456;-16
2024/05/04 18:27:39;;;;;;;1.38;0.90;;;;;;;12.35;100.00;100859.16;10944540;26;20037;-14
2024/05/04 18:32:43;;;;;;;3.35;1.20;;;;;;;12.34;100.00;100868.34;10944895;26;24381;-16
2024/05/04 18:37:47;;;;;;;2.63;1.23;;;;;;;12.26;100.00;100859.97;10938381;26;20018;-17
2024/05/04 18:42:54;;;;;;;3.30;1.25;;;;;;;12.17;100.00;100864.63;10948138;26;20804;-16
2024/05/04 18:47:58;;;;;;;2.60;1.40;;;;;;;12.02;100.00;100854.41;10937540;26;22054;-16
2024/05/04 18:53:02;;;;;;;2.30;1.35;;;;;;;12.11;100.00;100843.59;10944177;26;20571;-17
2024/05/04 18:58:08;;;;;;;2.95;1.70;;;;;;;11.96;100.00;100843.03;10936546;26;20023;-16
2024/05/04 19:03:12;;;;;;;7.40;1.73;;;;;;;11.92;100.00;100841.31;10936883;26;20015;-17
2024/05/04 19:08:16;;;;;;;3.10;1.70;;;;;;;11.82;100.00;100837.09;10939799;26;20015;-17
2024/05/04 19:13:22;;;;;;;4.18;1.90;;;;;;;11.73;100.00;100822.06;10950170;26;20571;-16
2024/05/04 19:18:26;;;;;;;2.45;1.60;;;;;;;11.79;100.00;100820.81;10924859;26;21302;-16
2024/05/04 19:23:30;;;;;;;2.80;1.45;;;;;;;11.83;100.00;100819.84;10946910;26;20302;-15
2024/05/04 19:28:38;;;;;;;5.25;1.67;;;;;;;11.85;100.00;100820.31;10929238;26;20026;-16
2024/05/04 19:33:43;;;;;;;4.43;2.17;;;;;;;11.73;100.00;100812.09;10939047;26;20577;-16
2024/05/04 19:38:47;;;;;;;3.72;2.08;;;;;;;11.67;100.00;100797.25;10939577;26;21230;-17
2024/05/04 19:43:53;;;;;;;2.42;1.60;;;;;;;11.76;100.00;100800.69;10940112;26;20027;-17
2024/05/04 19:48:57;;;;;;;3.00;2.00;;;;;;;11.59;100.00;100796.19;10929683;26;20029;-17
2024/05/04 19:54:01;;;;;;;6.15;1.95;;;;;;;11.53;100.00;100775.94;10942550;26;20123;-17
2024/05/04 19:59:07;;;;;;;2.92;1.80;;;;;;;11.49;100.00;100774.22;10952220;26;20044;-16
2024/05/04 20:04:12;;;;;;;2.53;1.60;;;;;;;11.52;100.00;100774.38;10900118;26;20007;-17
2024/05/04 20:09:15;;;;;;;3.80;1.90;;;;;;;11.47;100.00;100768.38;10930146;26;21729;-17
2024/05/04 20:14:22;;;;;;;3.15;1.90;;;;;;;11.47;100.00;100771.06;10936777;26;20062;-16
2024/05/04 20:19:25;;;;;;;2.70;1.98;;;;;;;11.47;100.00;100771.06;10939504;26;20016;-17
2024/05/04 20:24:31;;;;;;;3.55;2.20;;;;;;;11.48;100.00;100765.38;10932092;26;20448;-15
2024/05/04 20:29:39;;;;;;;3.25;2.25;;;;;;;11.55;100.00;100751.41;10952916;26;20068;-16
2024/05/04 20:34:45;;;;;;;4.82;2.40;;;;;;;11.49;100.00;100750.03;10948068;26;20814;-16
2024/05/04 20:39:48;;;;;;;5.55;2.42;;;;;;;11.37;100.00;100750.72;10932076;26;20018;-16
2024/05/04 20:44:55;;;;;;;3.45;2.13;;;;;;;11.34;100.00;100752.16;10940816;26;20019;-17
2024/05/04 20:49:59;;;;;;;5.60;2.30;;;;;;;11.31;100.00;100738.56;10946686;26;20022;-16
2024/05/04 20:55:02;;;;;;;3.22;2.10;;;;;;;11.35;100.00;100740.28;10916484;26;20090;-16
2024/05/04 21:00:11;;;;;;;4.38;2.60;;;;;;;11.30;100.00;100748.53;10928393;26;20029;-17
2024/05/04 21:05:15;;;;;;;4.40;2.35;;;;;;;11.28;100.00;100742.69;10933434;26;20918;-16
2024/05/04 21:10:19;;;;;;;2.75;1.88;;;;;;;11.43;100.00;100738.66;10955116;26;20356;-16
2024/05/04 21:15:25;;;;;;;4.68;2.47;;;;;;;11.43;100.00;100735.19;10915047;26;20014;-17
2024/05/04 21:20:29;;;;;;;3.47;2.35;;;;;;;11.39;100.00;100735.03;10947275;26;20424;-16
2024/05/04 21:25:33;;;;;;;3.97;2.20;;;;;;;11.33;100.00;100730.97;10941750;26;20014;-16
2024/05/04 21:30:39;;;;;;;5.03;2.15;;;;;;;11.34;100.00;100735.22;10936629;26;20020;-17
2024/05/04 21:35:44;;;;;;;3.67;2.17;;;;;;;11.39;100.00;100748.50;10929865;26;21233;-16
2024/05/04 21:40:48;;;;;;;4.07;2.53;;;;;;;11.29;100.00;100738.09;10933553;26;20011;-18
2024/05/04 21:45:54;;;;;;;3.60;2.22;;;;;;;11.28;100.00;100726.56;10939253;26;20224;-16
2024/05/04 21:50:58;;;;;;;3.53;2.53;;;;;;;11.23;100.00;100717.88;10938757;26;20442;-15
2024/05/04 21:56:02;;;;;;;4.05;2.70;;;;;;;11.16;100.00;100707.63;10924409;26;20012;-16
2024/05/04 22:01:10;;;;;;;4.55;2.53;;;;;;;11.19;100.00;100698.91;10941521;26;25189;-16
2024/05/04 22:06:14;;;;;;;3.65;2.65;;;;;;;11.28;100.00;100701.56;10945627;26;20055;-16
2024/05/04 22:11:18;;;;;;;4.45;2.65;;;;;;;11.22;100.00;100692.88;10937378;26;20091;-19
2024/05/04 22:16:24;;;;;;;4.22;2.80;;;;;;;11.18;100.00;100693.84;10927659;26;20083;-20
2024/05/04 22:21:28;;;;;;;3.65;2.60;;;;;;;11.14;100.00;100684.88;10957884;26;20025;-19
2024/05/04 22:26:32;;;;;;;5.15;3.22;;;;;;;11.19;100.00;100682.00;10951895;26;20558;-20
2024/05/04 22:31:39;;;;;;;4.93;3.00;;;;;;;11.20;100.00;100672.81;10955010;26;20011;-20
2024/05/04 22:36:42;;;;;;;4.68;3.17;;;;;;;11.06;100.00;100677.63;10965125;26;24939;-20
2024/05/04 22:41:46;;;;;;;5.28;3.20;;;;;;;11.16;100.00;100680.75;10959845;26;20819;-20
2024/05/04 22:47:02;;;;;;;5.03;3.38;;;;;;;11.13;100.00;100675.22;10921473;26;21457;-19
2024/05/04 22:52:07;;;;;;;6.50;3.67;;;;;;;11.03;100.00;100671.78;10958400;26;21406;-20
2024/05/04 22:57:11;;;;;;;5.40;3.42;;;;;;;11.03;100.00;100665.63;10958601;26;20692;-20
2024/05/04 23:02:17;;;;;;;4.75;3.40;;;;;;;11.07;100.00;100673.81;10957151;26;20372;-19
2024/05/04 23:07:21;;;;;;;6.45;3.85;;;;;;;11.09;100.00;100671.59;10956561;26;20014;-20
2024/05/04 23:12:25;;;;;;;4.75;3.20;;;;;;;11.08;100.00;100676.19;10954484;26;20043;-20
2024/05/04 23:17:32;;;;;;;5.38;3.88;;;;;;;11.06;100.00;100664.97;10941635;26;20019;-20
2024/05/04 23:22:36;;;;;;;5.35;3.83;;;;;;;11.11;100.00;100655.94;10941933;26;20252;-20